Petersville, North Carolina
Current Conditions -  °F | °C
As of 3:55 PM on Thursday 20 Nov 2014 (Local Time) from KEXX Reporting Station
Clear Clear  
Wind Chill: 56°   Ceiling: Unl
Heat Index: 56°   Visibility: 10mi
Dew Point: 27°   Wind: 9mph
Humidity: 32%   Direction: 210°SSW
Pressure: 30.03"   Gusts: NA
Location:  35.7974°N, 80.2541°W
Report Text: KEXX 202055Z AUTO 21008KT 10SM CLR 13/M03 A3003 RMK AO2 T01341029
Loading
Personal Weather Stations






























Interactive Weather Map New forecast layout! Learn more

10-Day Weather Forecast

Advertisements
Track Severe Weather on mobile